sensor_id;sensor_type;location;lat;lon;timestamp;temperature;humidity
827;DHT22;395;48.132;11.608;2023-04-24T00:00:01;14.00;11.30
827;DHT22;395;48.132;11.608;2023-04-24T00:02:28;14.00;11.30
827;DHT22;395;48.132;11.608;2023-04-24T00:04:54;14.00;10.80
827;DHT22;395;48.132;11.608;2023-04-24T00:07:20;14.00;10.90
827;DHT22;395;48.132;11.608;2023-04-24T00:09:46;14.10;11.20
827;DHT22;395;48.132;11.608;2023-04-24T00:12:12;14.10;11.30
827;DHT22;395;48.132;11.608;2023-04-24T00:14:38;14.10;10.90
827;DHT22;395;48.132;11.608;2023-04-24T00:17:04;14.00;10.90
827;DHT22;395;48.132;11.608;2023-04-24T00:19:30;14.10;10.80
827;DHT22;395;48.132;11.608;2023-04-24T00:21:56;14.10;10.90
827;DHT22;395;48.132;11.608;2023-04-24T00:24:21;14.10;10.80
827;DHT22;395;48.132;11.608;2023-04-24T00:26:47;14.10;10.40
827;DHT22;395;48.132;11.608;2023-04-24T00:29:13;14.10;10.40
827;DHT22;395;48.132;11.608;2023-04-24T00:31:39;14.00;11.00
827;DHT22;395;48.132;11.608;2023-04-24T00:34:05;14.00;10.40
827;DHT22;395;48.132;11.608;2023-04-24T00:36:31;14.00;9.50
827;DHT22;395;48.132;11.608;2023-04-24T00:38:57;14.00;9.70
827;DHT22;395;48.132;11.608;2023-04-24T00:41:24;14.00;10.00
827;DHT22;395;48.132;11.608;2023-04-24T00:43:51;13.90;9.90
827;DHT22;395;48.132;11.608;2023-04-24T00:46:17;14.00;10.30
827;DHT22;395;48.132;11.608;2023-04-24T00:48:43;14.00;10.00
827;DHT22;395;48.132;11.608;2023-04-24T00:51:09;14.00;10.00
827;DHT22;395;48.132;11.608;2023-04-24T00:53:35;14.00;9.40
827;DHT22;395;48.132;11.608;2023-04-24T00:56:01;14.00;8.00
827;DHT22;395;48.132;11.608;2023-04-24T00:58:27;14.00;7.80
827;DHT22;395;48.132;11.608;2023-04-24T01:00:54;13.90;7.40
827;DHT22;395;48.132;11.608;2023-04-24T01:03:22;13.90;8.00
827;DHT22;395;48.132;11.608;2023-04-24T01:05:50;13.90;7.40
827;DHT22;395;48.132;11.608;2023-04-24T01:08:16;13.90;6.90
827;DHT22;395;48.132;11.608;2023-04-24T01:10:43;13.90;7.00
827;DHT22;395;48.132;11.608;2023-04-24T01:13:10;13.90;6.20
827;DHT22;395;48.132;11.608;2023-04-24T01:15:36;13.80;5.40
827;DHT22;395;48.132;11.608;2023-04-24T01:18:02;13.80;6.10
827;DHT22;395;48.132;11.608;2023-04-24T01:20:28;13.80;6.10
827;DHT22;395;48.132;11.608;2023-04-24T01:22:55;13.80;6.10
827;DHT22;395;48.132;11.608;2023-04-24T01:25:22;13.80;5.80
827;DHT22;395;48.132;11.608;2023-04-24T01:27:48;13.70;5.80
827;DHT22;395;48.132;11.608;2023-04-24T01:30:15;13.70;5.70
827;DHT22;395;48.132;11.608;2023-04-24T01:32:41;13.70;5.40
827;DHT22;395;48.132;11.608;2023-04-24T01:35:10;13.70;4.00
827;DHT22;395;48.132;11.608;2023-04-24T01:37:35;13.70;5.90
827;DHT22;395;48.132;11.608;2023-04-24T01:40:06;13.70;4.30
827;DHT22;395;48.132;11.608;2023-04-24T01:42:32;13.60;5.10
827;DHT22;395;48.132;11.608;2023-04-24T01:44:59;13.60;5.90
827;DHT22;395;48.132;11.608;2023-04-24T01:47:25;13.60;5.10
827;DHT22;395;48.132;11.608;2023-04-24T01:49:51;13.60;4.50
827;DHT22;395;48.132;11.608;2023-04-24T01:52:17;13.60;5.20
827;DHT22;395;48.132;11.608;2023-04-24T01:54:44;13.60;6.00
827;DHT22;395;48.132;11.608;2023-04-24T01:57:10;13.60;5.20
827;DHT22;395;48.132;11.608;2023-04-24T01:59:36;13.60;4.00
827;DHT22;395;48.132;11.608;2023-04-24T02:02:02;13.60;5.20
827;DHT22;395;48.132;11.608;2023-04-24T02:04:28;13.60;4.80
827;DHT22;395;48.132;11.608;2023-04-24T02:06:54;13.50;5.50
827;DHT22;395;48.132;11.608;2023-04-24T02:09:20;13.60;5.40
827;DHT22;395;48.132;11.608;2023-04-24T02:11:46;13.50;4.70
827;DHT22;395;48.132;11.608;2023-04-24T02:14:11;13.60;5.20
827;DHT22;395;48.132;11.608;2023-04-24T02:16:37;13.50;4.70
827;DHT22;395;48.132;11.608;2023-04-24T02:19:03;13.60;5.60
827;DHT22;395;48.132;11.608;2023-04-24T02:21:29;13.60;3.70
827;DHT22;395;48.132;11.608;2023-04-24T02:23:56;13.60;3.00
827;DHT22;395;48.132;11.608;2023-04-24T02:26:22;13.50;3.40
827;DHT22;395;48.132;11.608;2023-04-24T02:28:48;13.50;4.20
827;DHT22;395;48.132;11.608;2023-04-24T02:31:14;13.50;3.30
827;DHT22;395;48.132;11.608;2023-04-24T02:33:40;13.40;3.30
827;DHT22;395;48.132;11.608;2023-04-24T02:36:06;13.40;3.80
827;DHT22;395;48.132;11.608;2023-04-24T02:38:31;13.40;4.10
827;DHT22;395;48.132;11.608;2023-04-24T02:40:57;13.40;4.00
827;DHT22;395;48.132;11.608;2023-04-24T02:43:22;13.40;3.50
827;DHT22;395;48.132;11.608;2023-04-24T02:45:48;13.30;3.90
827;DHT22;395;48.132;11.608;2023-04-24T02:48:14;13.40;3.30
827;DHT22;395;48.132;11.608;2023-04-24T02:50:40;13.30;2.80
827;DHT22;395;48.132;11.608;2023-04-24T02:53:06;13.30;3.90
827;DHT22;395;48.132;11.608;2023-04-24T02:55:31;13.30;3.90
827;DHT22;395;48.132;11.608;2023-04-24T02:57:57;13.30;4.80
827;DHT22;395;48.132;11.608;2023-04-24T03:00:23;13.30;4.90
827;DHT22;395;48.132;11.608;2023-04-24T03:02:48;13.30;4.90
827;DHT22;395;48.132;11.608;2023-04-24T03:05:15;13.30;4.40
827;DHT22;395;48.132;11.608;2023-04-24T03:07:41;13.30;4.50
827;DHT22;395;48.132;11.608;2023-04-24T03:10:07;13.30;4.10
827;DHT22;395;48.132;11.608;2023-04-24T03:12:33;13.20;4.70
827;DHT22;395;48.132;11.608;2023-04-24T03:14:58;13.20;4.80
827;DHT22;395;48.132;11.608;2023-04-24T03:17:24;13.20;4.90
827;DHT22;395;48.132;11.608;2023-04-24T03:19:50;13.20;4.80
827;DHT22;395;48.132;11.608;2023-04-24T03:22:16;13.20;5.00
827;DHT22;395;48.132;11.608;2023-04-24T03:24:42;13.20;6.10
827;DHT22;395;48.132;11.608;2023-04-24T03:27:07;13.20;5.30
827;DHT22;395;48.132;11.608;2023-04-24T03:29:33;13.20;5.70
827;DHT22;395;48.132;11.608;2023-04-24T03:31:58;13.20;6.00
827;DHT22;395;48.132;11.608;2023-04-24T03:34:24;13.20;6.10
827;DHT22;395;48.132;11.608;2023-04-24T03:36:50;13.30;7.00
827;DHT22;395;48.132;11.608;2023-04-24T03:39:16;13.20;7.00
827;DHT22;395;48.132;11.608;2023-04-24T03:41:41;13.30;6.70
827;DHT22;395;48.132;11.608;2023-04-24T03:44:07;13.20;7.10
827;DHT22;395;48.132;11.608;2023-04-24T03:46:33;13.20;7.30
827;DHT22;395;48.132;11.608;2023-04-24T03:48:58;13.20;7.40
827;DHT22;395;48.132;11.608;2023-04-24T03:51:24;13.20;7.80
827;DHT22;395;48.132;11.608;2023-04-24T03:53:50;13.30;8.00
827;DHT22;395;48.132;11.608;2023-04-24T03:56:16;13.20;7.70
827;DHT22;395;48.132;11.608;2023-04-24T03:58:42;13.20;7.90
827;DHT22;395;48.132;11.608;2023-04-24T04:01:08;13.20;7.90
827;DHT22;395;48.132;11.608;2023-04-24T04:03:33;13.20;8.10
827;DHT22;395;48.132;11.608;2023-04-24T04:05:59;13.20;8.30
827;DHT22;395;48.132;11.608;2023-04-24T04:08:25;13.20;8.20
827;DHT22;395;48.132;11.608;2023-04-24T04:10:51;13.20;8.30
827;DHT22;395;48.132;11.608;2023-04-24T04:13:16;13.20;8.70
827;DHT22;395;48.132;11.608;2023-04-24T04:15:42;13.20;9.00
827;DHT22;395;48.132;11.608;2023-04-24T04:18:08;13.20;8.70
827;DHT22;395;48.132;11.608;2023-04-24T04:20:33;13.20;8.80
827;DHT22;395;48.132;11.608;2023-04-24T04:22:59;13.20;8.50
827;DHT22;395;48.132;11.608;2023-04-24T04:25:25;13.20;8.30
827;DHT22;395;48.132;11.608;2023-04-24T04:27:51;13.20;8.10
827;DHT22;395;48.132;11.608;2023-04-24T04:30:17;13.20;7.70
827;DHT22;395;48.132;11.608;2023-04-24T04:32:43;13.20;7.60
827;DHT22;395;48.132;11.608;2023-04-24T04:35:09;13.20;7.60
827;DHT22;395;48.132;11.608;2023-04-24T04:37:35;13.20;8.30
827;DHT22;395;48.132;11.608;2023-04-24T04:40:02;13.10;7.90
827;DHT22;395;48.132;11.608;2023-04-24T04:42:32;13.10;7.60
827;DHT22;395;48.132;11.608;2023-04-24T04:45:00;13.10;7.70
827;DHT22;395;48.132;11.608;2023-04-24T04:47:26;13.10;8.00
827;DHT22;395;48.132;11.608;2023-04-24T04:49:54;13.10;8.10
827;DHT22;395;48.132;11.608;2023-04-24T04:52:20;13.10;8.70
827;DHT22;395;48.132;11.608;2023-04-24T04:54:45;13.10;9.40
827;DHT22;395;48.132;11.608;2023-04-24T04:57:11;13.20;8.90
827;DHT22;395;48.132;11.608;2023-04-24T04:59:37;13.20;8.40
827;DHT22;395;48.132;11.608;2023-04-24T05:02:03;13.10;6.60
827;DHT22;395;48.132;11.608;2023-04-24T05:04:29;13.00;7.50
827;DHT22;395;48.132;11.608;2023-04-24T05:06:55;13.00;8.00
827;DHT22;395;48.132;11.608;2023-04-24T05:09:21;12.90;7.00
827;DHT22;395;48.132;11.608;2023-04-24T05:11:47;13.00;7.90
827;DHT22;395;48.132;11.608;2023-04-24T05:14:13;13.00;7.00
827;DHT22;395;48.132;11.608;2023-04-24T05:16:39;13.00;7.00
827;DHT22;395;48.132;11.608;2023-04-24T05:19:05;13.00;7.40
827;DHT22;395;48.132;11.608;2023-04-24T05:21:31;13.00;6.40
827;DHT22;395;48.132;11.608;2023-04-24T05:23:57;13.00;6.80
827;DHT22;395;48.132;11.608;2023-04-24T05:26:22;13.00;6.40
827;DHT22;395;48.132;11.608;2023-04-24T05:28:48;13.00;6.70
827;DHT22;395;48.132;11.608;2023-04-24T05:31:15;13.00;6.80
827;DHT22;395;48.132;11.608;2023-04-24T05:33:41;13.00;5.90
827;DHT22;395;48.132;11.608;2023-04-24T05:36:07;13.00;6.30
827;DHT22;395;48.132;11.608;2023-04-24T05:38:32;13.00;6.40
827;DHT22;395;48.132;11.608;2023-04-24T05:40:58;13.00;6.40
827;DHT22;395;48.132;11.608;2023-04-24T05:43:24;13.00;6.30
827;DHT22;395;48.132;11.608;2023-04-24T05:45:50;12.90;6.90
827;DHT22;395;48.132;11.608;2023-04-24T05:48:16;13.00;6.60
827;DHT22;395;48.132;11.608;2023-04-24T05:50:41;13.00;5.60
827;DHT22;395;48.132;11.608;2023-04-24T05:53:07;13.00;5.60
827;DHT22;395;48.132;11.608;2023-04-24T05:55:33;13.00;5.60
827;DHT22;395;48.132;11.608;2023-04-24T05:57:59;13.00;5.60
827;DHT22;395;48.132;11.608;2023-04-24T06:00:26;13.00;5.60
827;DHT22;395;48.132;11.608;2023-04-24T06:02:52;13.00;5.00
827;DHT22;395;48.132;11.608;2023-04-24T06:05:18;13.00;5.20
827;DHT22;395;48.132;11.608;2023-04-24T06:07:44;13.00;5.60
827;DHT22;395;48.132;11.608;2023-04-24T06:10:10;13.00;5.60
827;DHT22;395;48.132;11.608;2023-04-24T06:12:36;13.10;6.00
827;DHT22;395;48.132;11.608;2023-04-24T06:15:02;13.10;5.80
827;DHT22;395;48.132;11.608;2023-04-24T06:17:28;13.20;5.70
827;DHT22;395;48.132;11.608;2023-04-24T06:19:54;13.20;5.70
827;DHT22;395;48.132;11.608;2023-04-24T06:22:19;13.20;5.70
827;DHT22;395;48.132;11.608;2023-04-24T06:24:45;13.30;5.70
827;DHT22;395;48.132;11.608;2023-04-24T06:27:12;13.30;5.30
827;DHT22;395;48.132;11.608;2023-04-24T06:29:38;13.40;5.00
827;DHT22;395;48.132;11.608;2023-04-24T06:32:03;13.40;3.80
827;DHT22;395;48.132;11.608;2023-04-24T06:34:29;13.40;2.90
827;DHT22;395;48.132;11.608;2023-04-24T06:36:56;13.40;2.80
827;DHT22;395;48.132;11.608;2023-04-24T06:39:21;13.40;2.40
827;DHT22;395;48.132;11.608;2023-04-24T06:41:47;13.40;3.00
827;DHT22;395;48.132;11.608;2023-04-24T06:44:13;13.40;2.80
827;DHT22;395;48.132;11.608;2023-04-24T06:46:40;13.50;2.50
827;DHT22;395;48.132;11.608;2023-04-24T06:49:06;13.50;2.90
827;DHT22;395;48.132;11.608;2023-04-24T06:51:32;13.50;2.70
827;DHT22;395;48.132;11.608;2023-04-24T06:53:58;13.50;1.00
827;DHT22;395;48.132;11.608;2023-04-24T06:56:25;13.50;1.00
827;DHT22;395;48.132;11.608;2023-04-24T06:58:51;13.60;1.50
827;DHT22;395;48.132;11.608;2023-04-24T07:01:17;13.50;1.00
827;DHT22;395;48.132;11.608;2023-04-24T07:03:42;13.50;1.00
827;DHT22;395;48.132;11.608;2023-04-24T07:06:09;13.50;1.00
827;DHT22;395;48.132;11.608;2023-04-24T07:08:36;13.50;1.00
827;DHT22;395;48.132;11.608;2023-04-24T07:11:02;13.50;1.00
827;DHT22;395;48.132;11.608;2023-04-24T07:13:28;13.50;1.00
827;DHT22;395;48.132;11.608;2023-04-24T07:15:54;13.50;1.00
827;DHT22;395;48.132;11.608;2023-04-24T07:18:21;13.50;1.00
827;DHT22;395;48.132;11.608;2023-04-24T07:20:47;13.40;1.00
827;DHT22;395;48.132;11.608;2023-04-24T07:23:13;13.30;1.00
827;DHT22;395;48.132;11.608;2023-04-24T07:25:39;13.30;1.00
827;DHT22;395;48.132;11.608;2023-04-24T07:28:05;13.30;1.00
827;DHT22;395;48.132;11.608;2023-04-24T07:30:31;13.30;1.00
827;DHT22;395;48.132;11.608;2023-04-24T07:32:58;13.20;1.00
827;DHT22;395;48.132;11.608;2023-04-24T07:35:25;13.30;1.00
827;DHT22;395;48.132;11.608;2023-04-24T07:37:54;13.30;1.00
827;DHT22;395;48.132;11.608;2023-04-24T07:40:21;13.30;1.00
827;DHT22;395;48.132;11.608;2023-04-24T07:42:47;13.20;1.00
827;DHT22;395;48.132;11.608;2023-04-24T07:45:14;13.20;1.00
827;DHT22;395;48.132;11.608;2023-04-24T07:47:42;13.20;1.00
827;DHT22;395;48.132;11.608;2023-04-24T07:50:09;13.10;1.00
827;DHT22;395;48.132;11.608;2023-04-24T07:52:35;13.10;1.00
827;DHT22;395;48.132;11.608;2023-04-24T07:55:01;13.10;1.00
827;DHT22;395;48.132;11.608;2023-04-24T07:57:28;13.10;1.00
827;DHT22;395;48.132;11.608;2023-04-24T07:59:54;13.10;1.00
827;DHT22;395;48.132;11.608;2023-04-24T08:02:19;13.10;1.00
827;DHT22;395;48.132;11.608;2023-04-24T08:04:47;13.20;1.00
827;DHT22;395;48.132;11.608;2023-04-24T08:07:12;13.10;1.00
827;DHT22;395;48.132;11.608;2023-04-24T08:09:38;13.20;1.00
827;DHT22;395;48.132;11.608;2023-04-24T08:12:04;13.30;1.00
827;DHT22;395;48.132;11.608;2023-04-24T08:14:30;13.20;1.00
827;DHT22;395;48.132;11.608;2023-04-24T08:16:55;13.30;1.00
827;DHT22;395;48.132;11.608;2023-04-24T08:19:22;13.40;1.00
827;DHT22;395;48.132;11.608;2023-04-24T08:21:47;13.40;1.00
827;DHT22;395;48.132;11.608;2023-04-24T08:24:13;13.40;1.00
827;DHT22;395;48.132;11.608;2023-04-24T08:26:39;13.40;1.00
827;DHT22;395;48.132;11.608;2023-04-24T08:29:05;13.40;1.00
827;DHT22;395;48.132;11.608;2023-04-24T08:31:32;13.40;1.00
827;DHT22;395;48.132;11.608;2023-04-24T08:33:57;13.30;1.00
827;DHT22;395;48.132;11.608;2023-04-24T08:36:24;13.10;1.00
827;DHT22;395;48.132;11.608;2023-04-24T08:38:49;12.90;1.00
827;DHT22;395;48.132;11.608;2023-04-24T08:41:15;12.90;2.20
827;DHT22;395;48.132;11.608;2023-04-24T08:43:43;12.90;2.70
827;DHT22;395;48.132;11.608;2023-04-24T08:46:13;12.70;5.40
827;DHT22;395;48.132;11.608;2023-04-24T08:48:39;12.60;12.80
827;DHT22;395;48.132;11.608;2023-04-24T08:51:07;12.50;12.60
827;DHT22;395;48.132;11.608;2023-04-24T08:53:33;12.30;11.20
827;DHT22;395;48.132;11.608;2023-04-24T08:56:00;12.20;8.40
827;DHT22;395;48.132;11.608;2023-04-24T08:58:27;12.20;9.30
827;DHT22;395;48.132;11.608;2023-04-24T09:00:57;12.20;8.00
827;DHT22;395;48.132;11.608;2023-04-24T09:03:23;12.00;2.80
827;DHT22;395;48.132;11.608;2023-04-24T09:05:50;11.90;2.40
827;DHT22;395;48.132;11.608;2023-04-24T09:08:19;12.20;2.20
827;DHT22;395;48.132;11.608;2023-04-24T09:10:45;11.90;1.00
827;DHT22;395;48.132;11.608;2023-04-24T09:13:11;11.90;1.00
827;DHT22;395;48.132;11.608;2023-04-24T09:15:41;11.80;1.00
827;DHT22;395;48.132;11.608;2023-04-24T09:18:06;11.90;1.00
827;DHT22;395;48.132;11.608;2023-04-24T09:20:33;12.00;1.00
827;DHT22;395;48.132;11.608;2023-04-24T09:22:59;12.00;1.00
827;DHT22;395;48.132;11.608;2023-04-24T09:25:34;12.10;1.00
827;DHT22;395;48.132;11.608;2023-04-24T09:28:04;12.20;1.00
827;DHT22;395;48.132;11.608;2023-04-24T09:30:31;12.20;1.00
827;DHT22;395;48.132;11.608;2023-04-24T09:33:13;12.40;1.00
827;DHT22;395;48.132;11.608;2023-04-24T09:35:42;12.30;1.00
827;DHT22;395;48.132;11.608;2023-04-24T09:38:13;12.20;1.00
827;DHT22;395;48.132;11.608;2023-04-24T09:40:39;12.30;1.00
827;DHT22;395;48.132;11.608;2023-04-24T09:43:10;12.30;1.00
827;DHT22;395;48.132;11.608;2023-04-24T09:45:38;12.30;1.00
827;DHT22;395;48.132;11.608;2023-04-24T09:48:04;12.20;1.00
827;DHT22;395;48.132;11.608;2023-04-24T09:50:31;12.30;1.00
827;DHT22;395;48.132;11.608;2023-04-24T09:52:59;12.40;1.00
827;DHT22;395;48.132;11.608;2023-04-24T09:55:26;12.30;1.00
827;DHT22;395;48.132;11.608;2023-04-24T09:57:57;12.40;1.00
827;DHT22;395;48.132;11.608;2023-04-24T10:00:25;12.60;1.00
827;DHT22;395;48.132;11.608;2023-04-24T10:03:01;12.60;1.00
827;DHT22;395;48.132;11.608;2023-04-24T10:05:29;12.60;1.00
827;DHT22;395;48.132;11.608;2023-04-24T10:10:27;12.70;1.00
827;DHT22;395;48.132;11.608;2023-04-24T10:12:53;12.80;1.00
827;DHT22;395;48.132;11.608;2023-04-24T10:15:20;12.90;1.00
827;DHT22;395;48.132;11.608;2023-04-24T10:17:50;12.80;1.00
827;DHT22;395;48.132;11.608;2023-04-24T10:20:24;12.80;1.00
827;DHT22;395;48.132;11.608;2023-04-24T10:22:51;12.90;1.00
827;DHT22;395;48.132;11.608;2023-04-24T10:25:24;13.00;1.00
827;DHT22;395;48.132;11.608;2023-04-24T10:27:51;13.00;1.00
827;DHT22;395;48.132;11.608;2023-04-24T10:30:19;13.10;1.00
827;DHT22;395;48.132;11.608;2023-04-24T10:32:45;13.20;1.00
827;DHT22;395;48.132;11.608;2023-04-24T10:35:15;13.20;1.00
827;DHT22;395;48.132;11.608;2023-04-24T10:37:45;13.20;1.00
827;DHT22;395;48.132;11.608;2023-04-24T10:40:12;13.30;1.00
827;DHT22;395;48.132;11.608;2023-04-24T10:42:41;13.50;1.00
827;DHT22;395;48.132;11.608;2023-04-24T10:45:17;13.60;1.00
827;DHT22;395;48.132;11.608;2023-04-24T10:48:01;13.60;1.00
827;DHT22;395;48.132;11.608;2023-04-24T10:50:50;13.50;1.00
827;DHT22;395;48.132;11.608;2023-04-24T10:53:21;13.40;1.00
827;DHT22;395;48.132;11.608;2023-04-24T10:58:14;13.20;1.00
827;DHT22;395;48.132;11.608;2023-04-24T11:00:42;12.80;7.60
827;DHT22;395;48.132;11.608;2023-04-24T11:03:29;12.20;6.70
827;DHT22;395;48.132;11.608;2023-04-24T11:06:06;11.70;12.80
827;DHT22;395;48.132;11.608;2023-04-24T11:08:58;11.60;13.50
827;DHT22;395;48.132;11.608;2023-04-24T11:11:18;11.40;16.50
827;DHT22;395;48.132;11.608;2023-04-24T11:16:24;11.30;16.90
827;DHT22;395;48.132;11.608;2023-04-24T11:32:31;11.60;12.80
827;DHT22;395;48.132;11.608;2023-04-24T11:37:40;11.70;8.00
827;DHT22;395;48.132;11.608;2023-04-24T11:40:11;11.90;11.20
827;DHT22;395;48.132;11.608;2023-04-24T11:42:38;12.00;7.40
827;DHT22;395;48.132;11.608;2023-04-24T11:45:12;12.00;7.70
827;DHT22;395;48.132;11.608;2023-04-24T11:47:38;12.10;6.30
827;DHT22;395;48.132;11.608;2023-04-24T11:50:06;12.10;4.90
827;DHT22;395;48.132;11.608;2023-04-24T11:52:33;12.20;5.00
827;DHT22;395;48.132;11.608;2023-04-24T11:55:02;12.10;3.20
827;DHT22;395;48.132;11.608;2023-04-24T11:57:29;12.30;4.70
827;DHT22;395;48.132;11.608;2023-04-24T12:00:00;12.30;1.00
827;DHT22;395;48.132;11.608;2023-04-24T12:02:27;12.40;1.00
827;DHT22;395;48.132;11.608;2023-04-24T12:04:53;12.40;1.00
827;DHT22;395;48.132;11.608;2023-04-24T12:07:20;12.20;1.00
827;DHT22;395;48.132;11.608;2023-04-24T12:09:47;12.30;1.00
827;DHT22;395;48.132;11.608;2023-04-24T12:12:16;12.50;1.00
827;DHT22;395;48.132;11.608;2023-04-24T12:14:49;12.60;1.00
827;DHT22;395;48.132;11.608;2023-04-24T12:17:31;12.70;1.00
827;DHT22;395;48.132;11.608;2023-04-24T12:19:58;12.60;1.00
827;DHT22;395;48.132;11.608;2023-04-24T12:22:25;12.60;1.00
827;DHT22;395;48.132;11.608;2023-04-24T12:25:04;12.70;1.00
827;DHT22;395;48.132;11.608;2023-04-24T12:27:34;12.90;1.00
827;DHT22;395;48.132;11.608;2023-04-24T12:30:01;13.10;1.00
827;DHT22;395;48.132;11.608;2023-04-24T12:32:27;13.10;1.00
827;DHT22;395;48.132;11.608;2023-04-24T12:34:54;13.20;1.00
827;DHT22;395;48.132;11.608;2023-04-24T12:37:20;13.20;1.00
827;DHT22;395;48.132;11.608;2023-04-24T12:42:29;13.30;1.00
827;DHT22;395;48.132;11.608;2023-04-24T12:45:00;13.50;1.00
827;DHT22;395;48.132;11.608;2023-04-24T12:47:27;13.40;1.00
827;DHT22;395;48.132;11.608;2023-04-24T12:49:53;13.30;1.00
827;DHT22;395;48.132;11.608;2023-04-24T12:52:19;13.50;1.00
827;DHT22;395;48.132;11.608;2023-04-24T12:54:49;13.60;1.00
827;DHT22;395;48.132;11.608;2023-04-24T12:57:14;13.60;1.00
827;DHT22;395;48.132;11.608;2023-04-24T12:59:40;13.70;1.00
827;DHT22;395;48.132;11.608;2023-04-24T13:02:06;13.50;1.00
827;DHT22;395;48.132;11.608;2023-04-24T13:04:32;13.50;1.00
827;DHT22;395;48.132;11.608;2023-04-24T13:06:58;13.80;1.00
827;DHT22;395;48.132;11.608;2023-04-24T13:09:23;13.90;1.00
827;DHT22;395;48.132;11.608;2023-04-24T13:11:49;14.00;1.00
827;DHT22;395;48.132;11.608;2023-04-24T13:14:15;14.10;1.00
827;DHT22;395;48.132;11.608;2023-04-24T13:16:41;14.20;1.00
827;DHT22;395;48.132;11.608;2023-04-24T13:19:07;14.20;1.00
827;DHT22;395;48.132;11.608;2023-04-24T13:21:32;14.10;1.00
827;DHT22;395;48.132;11.608;2023-04-24T13:23:58;13.90;1.00
827;DHT22;395;48.132;11.608;2023-04-24T13:26:24;14.00;1.00
827;DHT22;395;48.132;11.608;2023-04-24T13:28:50;13.80;1.00
827;DHT22;395;48.132;11.608;2023-04-24T13:31:16;13.60;1.00
827;DHT22;395;48.132;11.608;2023-04-24T13:33:42;13.60;1.00
827;DHT22;395;48.132;11.608;2023-04-24T13:36:08;13.50;1.00
827;DHT22;395;48.132;11.608;2023-04-24T13:38:34;13.60;1.00
827;DHT22;395;48.132;11.608;2023-04-24T13:40:59;13.80;1.00
827;DHT22;395;48.132;11.608;2023-04-24T13:43:25;13.80;1.00
827;DHT22;395;48.132;11.608;2023-04-24T13:45:51;14.00;1.00
827;DHT22;395;48.132;11.608;2023-04-24T13:48:17;14.10;1.00
827;DHT22;395;48.132;11.608;2023-04-24T13:50:43;14.10;1.00
827;DHT22;395;48.132;11.608;2023-04-24T13:53:09;14.10;1.00
827;DHT22;395;48.132;11.608;2023-04-24T13:55:35;14.20;1.00
827;DHT22;395;48.132;11.608;2023-04-24T13:58:01;14.20;1.00
827;DHT22;395;48.132;11.608;2023-04-24T14:00:28;14.20;1.00
827;DHT22;395;48.132;11.608;2023-04-24T14:02:53;14.20;1.00
827;DHT22;395;48.132;11.608;2023-04-24T14:05:19;14.10;1.00
827;DHT22;395;48.132;11.608;2023-04-24T14:07:46;14.00;1.00
827;DHT22;395;48.132;11.608;2023-04-24T14:10:12;14.00;1.00
827;DHT22;395;48.132;11.608;2023-04-24T14:12:37;14.10;1.00
827;DHT22;395;48.132;11.608;2023-04-24T14:15:04;14.10;1.00
827;DHT22;395;48.132;11.608;2023-04-24T14:17:30;14.20;1.00
827;DHT22;395;48.132;11.608;2023-04-24T14:19:56;14.10;1.00
827;DHT22;395;48.132;11.608;2023-04-24T14:22:22;14.20;1.00
827;DHT22;395;48.132;11.608;2023-04-24T14:24:48;14.10;1.00
827;DHT22;395;48.132;11.608;2023-04-24T14:27:13;14.20;1.00
827;DHT22;395;48.132;11.608;2023-04-24T14:29:39;14.00;1.00
827;DHT22;395;48.132;11.608;2023-04-24T14:32:05;14.00;1.00
827;DHT22;395;48.132;11.608;2023-04-24T14:34:30;13.90;1.00
827;DHT22;395;48.132;11.608;2023-04-24T14:36:56;13.90;1.00
827;DHT22;395;48.132;11.608;2023-04-24T14:39:22;13.90;1.00
827;DHT22;395;48.132;11.608;2023-04-24T14:41:47;14.20;1.00
827;DHT22;395;48.132;11.608;2023-04-24T14:44:13;14.30;1.00
827;DHT22;395;48.132;11.608;2023-04-24T14:46:39;14.30;1.00
827;DHT22;395;48.132;11.608;2023-04-24T14:49:05;14.20;1.00
827;DHT22;395;48.132;11.608;2023-04-24T14:51:30;14.30;1.00
827;DHT22;395;48.132;11.608;2023-04-24T14:53:57;14.20;1.00
827;DHT22;395;48.132;11.608;2023-04-24T14:56:23;14.20;1.00
827;DHT22;395;48.132;11.608;2023-04-24T14:58:49;14.20;1.00
827;DHT22;395;48.132;11.608;2023-04-24T15:01:15;14.10;1.00
827;DHT22;395;48.132;11.608;2023-04-24T15:03:40;14.00;1.00
827;DHT22;395;48.132;11.608;2023-04-24T15:06:06;14.00;1.00
827;DHT22;395;48.132;11.608;2023-04-24T15:08:32;14.10;1.00
827;DHT22;395;48.132;11.608;2023-04-24T15:10:58;14.10;1.00
827;DHT22;395;48.132;11.608;2023-04-24T15:13:23;14.20;1.00
827;DHT22;395;48.132;11.608;2023-04-24T15:15:49;14.20;1.00
827;DHT22;395;48.132;11.608;2023-04-24T15:18:15;14.40;1.00
827;DHT22;395;48.132;11.608;2023-04-24T15:20:40;14.10;1.00
827;DHT22;395;48.132;11.608;2023-04-24T15:23:09;14.10;1.00
827;DHT22;395;48.132;11.608;2023-04-24T15:25:36;14.20;1.00
827;DHT22;395;48.132;11.608;2023-04-24T15:28:02;14.20;1.00
827;DHT22;395;48.132;11.608;2023-04-24T15:30:28;14.30;1.00
827;DHT22;395;48.132;11.608;2023-04-24T15:32:54;14.30;1.00
827;DHT22;395;48.132;11.608;2023-04-24T15:35:20;14.30;1.00
827;DHT22;395;48.132;11.608;2023-04-24T15:37:46;14.20;1.00
827;DHT22;395;48.132;11.608;2023-04-24T15:40:12;14.20;1.00
827;DHT22;395;48.132;11.608;2023-04-24T15:42:41;14.20;1.00
827;DHT22;395;48.132;11.608;2023-04-24T15:45:08;14.30;1.00
827;DHT22;395;48.132;11.608;2023-04-24T15:47:33;14.30;1.00
827;DHT22;395;48.132;11.608;2023-04-24T15:49:59;14.30;1.00
827;DHT22;395;48.132;11.608;2023-04-24T15:52:25;14.20;1.00
827;DHT22;395;48.132;11.608;2023-04-24T15:54:50;14.20;1.00
827;DHT22;395;48.132;11.608;2023-04-24T15:57:16;14.10;1.00
827;DHT22;395;48.132;11.608;2023-04-24T15:59:43;14.20;1.00
827;DHT22;395;48.132;11.608;2023-04-24T16:02:11;14.30;1.00
827;DHT22;395;48.132;11.608;2023-04-24T16:04:48;14.10;1.00
827;DHT22;395;48.132;11.608;2023-04-24T16:07:14;14.10;1.00
827;DHT22;395;48.132;11.608;2023-04-24T16:09:42;14.10;1.00
827;DHT22;395;48.132;11.608;2023-04-24T16:12:08;14.10;1.00
827;DHT22;395;48.132;11.608;2023-04-24T16:14:35;14.00;1.00
827;DHT22;395;48.132;11.608;2023-04-24T16:17:01;14.10;1.00
827;DHT22;395;48.132;11.608;2023-04-24T16:19:27;14.00;1.00
827;DHT22;395;48.132;11.608;2023-04-24T16:21:53;13.70;1.00
827;DHT22;395;48.132;11.608;2023-04-24T16:24:23;13.60;1.00
827;DHT22;395;48.132;11.608;2023-04-24T16:26:50;13.60;1.00
827;DHT22;395;48.132;11.608;2023-04-24T16:29:16;13.60;1.00
827;DHT22;395;48.132;11.608;2023-04-24T16:31:43;13.40;1.00
827;DHT22;395;48.132;11.608;2023-04-24T16:34:09;13.40;1.00
827;DHT22;395;48.132;11.608;2023-04-24T16:36:35;13.50;1.00
827;DHT22;395;48.132;11.608;2023-04-24T16:39:01;13.60;1.00
827;DHT22;395;48.132;11.608;2023-04-24T16:41:32;13.50;1.00
827;DHT22;395;48.132;11.608;2023-04-24T16:43:58;13.60;1.00
827;DHT22;395;48.132;11.608;2023-04-24T16:46:23;13.70;1.00
827;DHT22;395;48.132;11.608;2023-04-24T16:48:49;13.60;1.00
827;DHT22;395;48.132;11.608;2023-04-24T16:51:15;13.70;1.00
827;DHT22;395;48.132;11.608;2023-04-24T16:53:40;13.70;1.00
827;DHT22;395;48.132;11.608;2023-04-24T16:56:06;13.50;1.00